TimeMST,TemperatureF,Dew PointF,Humidity,Sea Level PressureIn,VisibilityMPH,Wind Direction,Wind SpeedMPH,Gust SpeedMPH,PrecipitationIn,Events,Conditions,WindDirDegrees,DateUTC
12:55 AM,21.9,19.0,89,29.88,10.0,Calm,Calm,-,N/A,,Clear,0,2012-12-14 07:55:00
1:55 AM,19.9,17.1,89,29.87,10.0,SW,5.8,-,N/A,,Clear,220,2012-12-14 08:55:00
2:55 AM,18.0,15.1,88,29.86,10.0,WSW,3.5,-,N/A,,Clear,250,2012-12-14 09:55:00
3:55 AM,17.6,14.0,86,29.75,10.0,Calm,Calm,-,N/A,,Clear,0,2012-12-14 10:55:00
4:55 AM,14.0,12.0,92,29.85,10.0,Calm,Calm,-,N/A,,Clear,0,2012-12-14 11:55:00
5:55 AM,12.0,10.0,92,29.85,10.0,Calm,Calm,-,N/A,,Scattered Clouds,0,2012-12-14 12:55:00
6:06 AM,12.2,10.4,92,29.74,10.0,Calm,Calm,-,N/A,,Mostly Cloudy,0,2012-12-14 13:06:00
6:55 AM,15.1,12.9,91,29.85,10.0,Calm,Calm,-,N/A,,Overcast,0,2012-12-14 13:55:00
7:55 AM,19.0,16.0,88,29.84,10.0,Calm,Calm,-,N/A,,Overcast,0,2012-12-14 14:55:00
8:55 AM,19.9,17.1,89,29.83,10.0,Calm,Calm,-,N/A,,Overcast,0,2012-12-14 15:55:00
9:55 AM,21.9,19.0,89,29.84,10.0,Calm,Calm,-,N/A,,Overcast,0,2012-12-14 16:55:00
10:55 AM,23.0,19.0,85,29.84,10.0,Calm,Calm,-,N/A,,Overcast,0,2012-12-14 17:55:00
11:16 AM,24.8,19.4,80,29.74,10.0,Calm,Calm,-,N/A,,Overcast,0,2012-12-14 18:16:00
11:55 AM,25.0,19.9,81,29.83,10.0,Calm,Calm,-,N/A,,Overcast,0,2012-12-14 18:55:00
12:55 PM,27.0,21.0,78,29.82,10.0,Calm,Calm,-,N/A,,Overcast,0,2012-12-14 19:55:00
2:20 PM,28.4,21.2,74,29.72,10.0,Calm,Calm,-,N/A,,Overcast,0,2012-12-14 21:20:00
2:55 PM,26.6,21.2,80,29.72,10.0,Calm,Calm,-,N/A,,Overcast,0,2012-12-14 21:55:00
3:55 PM,27.0,21.0,78,29.85,10.0,Calm,Calm,-,N/A,,Mostly Cloudy,0,2012-12-14 22:55:00
4:55 PM,25.0,21.0,85,29.88,10.0,Calm,Calm,-,N/A,,Scattered Clouds,0,2012-12-14 23:55:00
5:55 PM,24.1,21.0,88,29.91,10.0,Calm,Calm,-,N/A,,Overcast,0,2012-12-15 00:55:00
6:55 PM,24.1,21.9,91,29.91,6.0,Calm,Calm,-,0.00,Snow,Light Snow,0,2012-12-15 01:55:00
7:55 PM,23.0,21.9,96,29.91,7.0,Calm,Calm,-,0.00,,Overcast,0,2012-12-15 02:55:00
8:55 PM,23.0,21.9,96,29.93,6.0,Calm,Calm,-,0.00,Snow,Light Snow,0,2012-12-15 03:55:00
9:55 PM,23.0,21.0,92,29.93,3.0,Calm,Calm,-,0.00,Snow,Light Snow,0,2012-12-15 04:55:00
10:55 PM,23.0,21.9,96,29.94,8.0,Calm,Calm,-,0.00,,Overcast,0,2012-12-15 05:55:00
11:55 PM,24.1,21.9,91,29.95,8.0,Calm,Calm,-,N/A,,Overcast,0,2012-12-15 06:55:00